createdAt,value
2023-02-07T00:01:23.246Z,9.80
2023-02-07T00:03:50.935Z,9.23
2023-02-07T00:06:32.971Z,9.60
2023-02-07T00:09:06.337Z,11.17
2023-02-07T00:11:33.740Z,11.23
2023-02-07T00:14:00.797Z,9.50
2023-02-07T00:16:28.400Z,11.13
2023-02-07T00:18:57.437Z,10.47
2023-02-07T00:21:26.424Z,9.50
2023-02-07T00:23:54.363Z,9.97
2023-02-07T00:26:23.171Z,8.93
2023-02-07T00:28:52.314Z,9.87
2023-02-07T00:31:22.745Z,9.47
2023-02-07T00:33:51.428Z,9.90
2023-02-07T00:36:20.917Z,9.57
2023-02-07T00:38:48.720Z,9.53
2023-02-07T00:41:18.673Z,10.70
2023-02-07T00:43:47.517Z,10.47
2023-02-07T00:46:15.011Z,9.93
2023-02-07T00:48:42.209Z,10.93
2023-02-07T00:51:10.769Z,10.17
2023-02-07T00:53:39.487Z,10.73
2023-02-07T00:56:07.815Z,11.60
2023-02-07T00:58:35.921Z,11.13
2023-02-07T01:01:03.518Z,10.63
2023-02-07T01:03:32.010Z,10.30
2023-02-07T01:05:59.043Z,10.07
2023-02-07T01:08:26.956Z,10.50
2023-02-07T01:10:53.981Z,10.80
2023-02-07T01:13:21.121Z,10.90
2023-02-07T01:15:49.425Z,9.83
2023-02-07T01:18:16.874Z,10.60
2023-02-07T01:20:44.095Z,10.80
2023-02-07T01:23:12.854Z,11.37
2023-02-07T01:25:40.475Z,11.60
2023-02-07T01:28:07.753Z,11.27
2023-02-07T01:30:34.901Z,11.80
2023-02-07T01:33:02.244Z,12.57
2023-02-07T01:35:29.298Z,11.70
2023-02-07T01:37:58.449Z,12.03
2023-02-07T01:40:27.222Z,11.17
2023-02-07T01:42:54.224Z,12.67
2023-02-07T01:45:45.728Z,12.20
2023-02-07T01:48:16.692Z,12.20
2023-02-07T01:50:48.671Z,12.13
2023-02-07T01:53:19.028Z,12.90
2023-02-07T01:55:47.489Z,12.47
2023-02-07T01:58:14.995Z,12.97
2023-02-07T02:00:42.579Z,12.97
2023-02-07T02:03:09.602Z,14.90
2023-02-07T02:05:38.799Z,13.47
2023-02-07T02:08:05.993Z,13.47
2023-02-07T02:11:09.524Z,12.80
2023-02-07T02:13:39.166Z,12.40
2023-02-07T02:16:28.766Z,12.67
2023-02-07T02:19:31.378Z,12.33
2023-02-07T02:22:16.660Z,12.63
2023-02-07T02:24:58.809Z,11.90
2023-02-07T02:27:51.376Z,11.87
2023-02-07T02:30:45.828Z,13.30
2023-02-07T02:33:44.124Z,13.13
2023-02-07T02:36:30.048Z,16.30
2023-02-07T02:39:07.775Z,15.73
2023-02-07T02:41:47.354Z,15.20
2023-02-07T02:44:22.511Z,14.20
2023-02-07T02:46:51.379Z,14.57
2023-02-07T02:49:19.622Z,13.63
2023-02-07T02:51:51.085Z,14.23
2023-02-07T02:54:35.760Z,13.27
2023-02-07T02:57:28.770Z,13.23
2023-02-07T03:00:18.415Z,13.53
2023-02-07T03:02:59.350Z,13.87
2023-02-07T03:05:51.315Z,13.23
2023-02-07T03:08:54.107Z,17.00
2023-02-07T03:11:23.897Z,15.37
2023-02-07T03:14:08.871Z,15.80
2023-02-07T03:16:49.641Z,16.50
2023-02-07T03:19:27.359Z,16.83
2023-02-07T03:21:56.940Z,18.60
2023-02-07T03:24:30.926Z,18.43
2023-02-07T03:27:01.443Z,19.50
2023-02-07T03:29:30.169Z,17.70
2023-02-07T03:32:00.619Z,17.67
2023-02-07T03:35:05.419Z,17.30
2023-02-07T03:37:37.840Z,17.23
2023-02-07T03:40:06.410Z,16.80
2023-02-07T03:42:41.588Z,17.53
2023-02-07T03:45:12.725Z,17.57
2023-02-07T03:47:39.627Z,17.77
2023-02-07T03:50:06.841Z,16.17
2023-02-07T03:52:33.791Z,18.17
2023-02-07T03:55:00.733Z,18.30
2023-02-07T03:57:27.614Z,17.57
2023-02-07T03:59:55.091Z,18.13
2023-02-07T04:02:22.606Z,17.07
2023-02-07T04:04:49.650Z,17.67
2023-02-07T04:07:16.703Z,16.90
2023-02-07T04:09:43.742Z,16.80
2023-02-07T04:12:11.394Z,16.57
2023-02-07T04:14:38.345Z,17.00
2023-02-07T04:17:05.383Z,17.63
2023-02-07T04:19:32.374Z,17.60
2023-02-07T04:21:59.329Z,16.63
2023-02-07T04:24:26.388Z,16.03
2023-02-07T04:26:53.384Z,16.77
2023-02-07T04:29:20.432Z,16.90
2023-02-07T04:31:47.454Z,15.97
2023-02-07T04:34:14.426Z,19.93
2023-02-07T04:36:41.397Z,18.20
2023-02-07T04:39:08.324Z,20.07
2023-02-07T04:41:35.373Z,16.63
2023-02-07T04:44:02.317Z,17.50
2023-02-07T04:46:29.314Z,16.90
2023-02-07T04:48:56.377Z,18.77
2023-02-07T04:51:23.475Z,16.67
2023-02-07T04:53:50.473Z,18.13
2023-02-07T04:56:17.555Z,17.30
2023-02-07T04:58:44.649Z,16.53
2023-02-07T05:01:11.680Z,19.80
2023-02-07T05:03:38.683Z,50.00
2023-02-07T05:06:06.039Z,20.20
2023-02-07T05:08:33.310Z,18.97
2023-02-07T05:11:00.414Z,18.73
2023-02-07T05:13:28.537Z,17.43
2023-02-07T05:15:55.453Z,18.93
2023-02-07T05:18:22.496Z,18.53
2023-02-07T05:20:52.275Z,18.23
2023-02-07T05:23:19.403Z,19.80
2023-02-07T05:25:49.233Z,20.10
2023-02-07T05:28:16.274Z,18.87
2023-02-07T05:30:43.415Z,18.93
2023-02-07T05:33:11.579Z,18.70
2023-02-07T05:35:40.844Z,18.27
2023-02-07T05:38:10.742Z,20.13
2023-02-07T05:40:39.123Z,18.50
2023-02-07T05:43:08.687Z,19.47
2023-02-07T05:45:35.931Z,18.03
2023-02-07T05:48:03.494Z,18.80
2023-02-07T05:50:30.977Z,18.63
2023-02-07T05:53:07.139Z,19.30
2023-02-07T05:55:35.629Z,18.70
2023-02-07T05:58:02.822Z,18.67
2023-02-07T06:00:29.956Z,20.33
2023-02-07T06:03:04.340Z,23.07
2023-02-07T06:05:33.088Z,20.30
2023-02-07T06:08:00.337Z,21.97
2023-02-07T06:10:27.416Z,22.33
2023-02-07T06:12:54.359Z,24.07
2023-02-07T06:15:21.443Z,26.63
2023-02-07T06:17:48.472Z,24.67
2023-02-07T06:20:15.687Z,30.67
2023-02-07T06:22:42.727Z,25.83
2023-02-07T06:25:12.148Z,23.87
2023-02-07T06:27:40.527Z,22.77
2023-02-07T06:30:09.606Z,20.70
2023-02-07T06:32:36.763Z,19.83
2023-02-07T06:35:07.621Z,20.50
2023-02-07T06:37:34.774Z,19.97
2023-02-07T06:40:01.958Z,20.87
2023-02-07T06:42:28.922Z,21.53
2023-02-07T06:44:55.898Z,21.40
2023-02-07T06:47:22.822Z,20.87
2023-02-07T06:49:49.929Z,20.47
2023-02-07T06:52:16.859Z,21.03
2023-02-07T06:54:43.766Z,20.23
2023-02-07T06:57:11.165Z,20.60
2023-02-07T06:59:38.201Z,30.37
2023-02-07T07:02:05.317Z,24.20
2023-02-07T07:04:32.302Z,22.47
2023-02-07T07:06:59.177Z,22.27
2023-02-07T07:09:26.516Z,22.17
2023-02-07T07:11:53.523Z,22.40
2023-02-07T07:14:21.089Z,22.57
2023-02-07T07:16:48.001Z,21.13
2023-02-07T07:19:15.032Z,22.53
2023-02-07T07:21:41.995Z,22.47
2023-02-07T07:24:08.892Z,23.13
2023-02-07T07:26:48.434Z,23.97
2023-02-07T07:29:17.147Z,22.93
2023-02-07T07:31:44.661Z,22.47
2023-02-07T07:34:11.713Z,22.00
2023-02-07T07:36:38.770Z,22.50
2023-02-07T07:39:05.913Z,24.80
2023-02-07T07:41:32.866Z,21.40
2023-02-07T07:43:59.843Z,19.97
2023-02-07T07:46:26.808Z,21.43
2023-02-07T07:48:53.736Z,21.90
2023-02-07T07:51:24.589Z,24.60
2023-02-07T07:53:51.615Z,21.47
2023-02-07T07:56:18.793Z,21.63
2023-02-07T07:58:45.744Z,21.77
2023-02-07T08:01:12.752Z,22.37
2023-02-07T08:03:39.990Z,21.87
2023-02-07T08:06:07.978Z,20.40
2023-02-07T08:08:35.039Z,19.73
2023-02-07T08:11:03.480Z,21.07
2023-02-07T08:13:33.112Z,20.63
2023-02-07T08:16:01.019Z,20.20
2023-02-07T08:18:28.423Z,18.77
2023-02-07T08:20:55.806Z,19.50
2023-02-07T08:23:22.891Z,20.27
2023-02-07T08:25:50.231Z,17.03
2023-02-07T08:28:17.902Z,17.40
2023-02-07T08:30:47.651Z,18.83
2023-02-07T08:33:15.602Z,18.13
2023-02-07T08:35:42.597Z,18.00
2023-02-07T08:38:09.761Z,19.17
2023-02-07T08:40:37.620Z,18.43
2023-02-07T08:43:07.015Z,19.13
2023-02-07T08:45:34.450Z,17.03
2023-02-07T08:48:01.502Z,17.40
2023-02-07T08:50:28.531Z,18.03
2023-02-07T08:52:55.584Z,17.57
2023-02-07T08:55:22.586Z,18.07
2023-02-07T08:57:49.657Z,17.53
2023-02-07T09:00:17.510Z,17.03
2023-02-07T09:02:44.596Z,16.30
2023-02-07T09:05:12.203Z,16.90
2023-02-07T09:07:39.191Z,16.00
2023-02-07T09:10:08.823Z,14.60
2023-02-07T09:12:36.333Z,14.00
2023-02-07T09:15:04.495Z,14.80
2023-02-07T09:17:31.727Z,15.93
2023-02-07T09:19:58.688Z,15.37
2023-02-07T09:22:25.546Z,18.03
2023-02-07T09:24:52.474Z,15.70
2023-02-07T09:27:19.449Z,10.90
2023-02-07T09:29:46.422Z,8.90
2023-02-07T09:32:13.454Z,6.90
2023-02-07T09:34:40.386Z,6.33
2023-02-07T09:37:07.299Z,5.30
2023-02-07T09:39:36.981Z,5.83
2023-02-07T09:42:23.105Z,5.70
2023-02-07T09:45:12.144Z,5.45
2023-02-07T09:47:42.973Z,5.45
2023-02-07T09:50:23.320Z,5.65
2023-02-07T09:52:55.401Z,5.18
2023-02-07T09:55:37.617Z,5.45
2023-02-07T09:58:13.140Z,6.00
2023-02-07T10:00:42.456Z,5.20
2023-02-07T10:03:22.864Z,5.40
2023-02-07T10:06:09.234Z,5.70
2023-02-07T10:08:46.168Z,5.30
2023-02-07T10:11:34.460Z,4.82
2023-02-07T10:14:13.418Z,5.50
2023-02-07T10:16:46.499Z,4.90
2023-02-07T10:19:34.453Z,4.57
2023-02-07T10:22:13.494Z,4.90
2023-02-07T10:24:53.763Z,5.07
2023-02-07T10:27:31.562Z,5.15
2023-02-07T10:30:17.226Z,4.55
2023-02-07T10:32:47.392Z,5.18
2023-02-07T10:35:21.584Z,5.93
2023-02-07T10:37:53.617Z,4.60
2023-02-07T10:40:30.700Z,5.15
2023-02-07T10:43:07.144Z,4.25
2023-02-07T10:45:34.255Z,4.95
2023-02-07T10:48:01.274Z,4.03
2023-02-07T10:50:41.766Z,4.68
2023-02-07T10:53:08.804Z,5.05
2023-02-07T10:55:46.343Z,4.43
2023-02-07T10:58:23.611Z,5.30
2023-02-07T11:00:55.306Z,4.70
2023-02-07T11:03:26.195Z,4.60
2023-02-07T11:05:54.369Z,4.32
2023-02-07T11:08:25.559Z,4.22
2023-02-07T11:10:58.379Z,4.88
2023-02-07T11:13:29.254Z,4.57
2023-02-07T11:16:01.337Z,3.90
2023-02-07T11:18:43.469Z,3.33
2023-02-07T11:21:42.774Z,2.65
2023-02-07T11:24:28.929Z,3.33
2023-02-07T11:27:06.681Z,3.00
2023-02-07T11:29:52.101Z,2.90
2023-02-07T11:32:19.644Z,3.38
2023-02-07T11:34:58.886Z,3.00
2023-02-07T11:37:32.631Z,3.38
2023-02-07T11:40:29.643Z,3.33
2023-02-07T11:43:23.837Z,3.60
2023-02-07T11:45:57.639Z,3.47
2023-02-07T11:48:29.714Z,6.57
2023-02-07T11:50:59.656Z,3.78
2023-02-07T11:53:29.146Z,4.15
2023-02-07T11:55:57.293Z,4.45
2023-02-07T11:58:42.872Z,5.38
2023-02-07T12:01:18.437Z,4.60
2023-02-07T12:03:52.889Z,4.50
2023-02-07T12:06:23.262Z,6.57
2023-02-07T12:08:52.256Z,3.80
2023-02-07T12:11:26.975Z,4.40
2023-02-07T12:14:09.143Z,11.93
2023-02-07T12:16:41.277Z,6.25
2023-02-07T12:19:23.119Z,4.25
2023-02-07T12:22:01.467Z,19.95
2023-02-07T12:24:40.528Z,4.20
2023-02-07T12:27:18.176Z,4.30
2023-02-07T12:29:52.160Z,4.43
2023-02-07T12:32:52.577Z,4.47
2023-02-07T12:35:34.007Z,3.85
2023-02-07T12:38:11.831Z,4.38
2023-02-07T12:40:57.288Z,4.40
2023-02-07T12:43:33.047Z,4.72
2023-02-07T12:46:09.474Z,4.75
2023-02-07T12:49:03.138Z,4.75
2023-02-07T12:51:48.186Z,7.22
2023-02-07T12:54:18.241Z,4.80
2023-02-07T12:57:00.851Z,4.40
2023-02-07T13:00:06.361Z,4.97
2023-02-07T13:02:57.160Z,4.90
2023-02-07T13:05:47.474Z,5.17
2023-02-07T13:08:45.710Z,5.30
2023-02-07T13:11:33.330Z,4.53
2023-02-07T13:14:12.554Z,4.97
2023-02-07T13:16:45.480Z,5.30
2023-02-07T13:19:42.709Z,5.20
2023-02-07T13:22:23.074Z,5.60
2023-02-07T13:24:52.139Z,5.07
2023-02-07T13:27:21.061Z,6.17
2023-02-07T13:29:51.166Z,6.50
2023-02-07T13:32:20.846Z,6.93
2023-02-07T13:35:10.689Z,5.27
2023-02-07T13:37:37.831Z,6.27
2023-02-07T13:40:30.410Z,7.77
2023-02-07T13:43:09.399Z,6.40
2023-02-07T13:45:49.856Z,6.83
2023-02-07T13:48:46.923Z,6.43
2023-02-07T13:51:25.311Z,6.60
2023-02-07T13:54:05.261Z,10.43
2023-02-07T13:56:55.604Z,7.20
2023-02-07T13:59:40.641Z,8.23
2023-02-07T14:02:18.806Z,8.20
2023-02-07T14:05:10.878Z,7.27
2023-02-07T14:07:39.514Z,9.33
2023-02-07T14:10:08.740Z,7.87
2023-02-07T14:12:39.546Z,8.43
2023-02-07T14:15:28.594Z,7.13
2023-02-07T14:18:06.820Z,7.57
2023-02-07T14:20:37.391Z,7.50
2023-02-07T14:23:16.831Z,7.20
2023-02-07T14:25:45.428Z,7.30
2023-02-07T14:28:29.025Z,7.47
2023-02-07T14:31:23.308Z,7.43
2023-02-07T14:34:11.994Z,9.90
2023-02-07T14:36:39.234Z,7.83
2023-02-07T14:39:27.901Z,6.73
2023-02-07T14:42:00.742Z,8.90
2023-02-07T14:44:34.741Z,7.60
2023-02-07T14:47:03.564Z,8.47
2023-02-07T14:49:38.883Z,7.53
2023-02-07T14:52:11.821Z,8.30
2023-02-07T14:54:45.194Z,8.47
2023-02-07T14:57:27.334Z,8.27
2023-02-07T15:00:15.210Z,7.83
2023-02-07T15:02:54.970Z,7.90
2023-02-07T15:05:35.642Z,9.03
2023-02-07T15:08:02.484Z,9.10
2023-02-07T15:10:35.981Z,8.40
2023-02-07T15:13:06.664Z,7.67
2023-02-07T15:16:05.101Z,7.80
2023-02-07T15:18:41.367Z,8.07
2023-02-07T15:21:18.189Z,8.40
2023-02-07T15:23:56.569Z,7.53
2023-02-07T15:26:23.651Z,8.57
2023-02-07T15:28:59.352Z,8.20
2023-02-07T15:31:30.166Z,8.10
2023-02-07T15:34:00.830Z,8.70
2023-02-07T15:36:33.956Z,8.83
2023-02-07T15:39:16.350Z,7.83
2023-02-07T15:41:49.501Z,8.60
2023-02-07T15:44:25.510Z,8.10
2023-02-07T15:46:58.237Z,7.60
2023-02-07T15:49:37.571Z,7.37
2023-02-07T15:52:22.773Z,8.33
2023-02-07T15:54:52.120Z,7.70
2023-02-07T15:57:30.157Z,8.80
2023-02-07T16:00:08.069Z,7.90
2023-02-07T16:02:47.411Z,7.43
2023-02-07T16:05:39.675Z,7.97
2023-02-07T16:08:28.029Z,7.80
2023-02-07T16:11:13.759Z,7.87
2023-02-07T16:13:54.272Z,7.60
2023-02-07T16:16:35.611Z,7.60
2023-02-07T16:19:15.175Z,7.37
2023-02-07T16:21:44.030Z,7.67
2023-02-07T16:24:20.855Z,7.63
2023-02-07T16:26:49.364Z,7.87
2023-02-07T16:29:23.752Z,7.43
2023-02-07T16:31:52.176Z,7.90
2023-02-07T16:34:20.580Z,9.93
2023-02-07T16:36:52.206Z,11.57
2023-02-07T16:39:19.699Z,15.07
2023-02-07T16:41:50.128Z,9.00
2023-02-07T16:44:28.617Z,9.67
2023-02-07T16:46:55.649Z,9.53
2023-02-07T16:49:25.724Z,8.90
2023-02-07T16:51:53.463Z,9.00
2023-02-07T16:54:21.158Z,8.83
2023-02-07T16:56:51.017Z,9.13
2023-02-07T16:59:21.199Z,9.60
2023-02-07T17:01:50.844Z,9.73
2023-02-07T17:04:17.968Z,10.20
2023-02-07T17:06:45.585Z,13.93
2023-02-07T17:09:18.641Z,12.90
2023-02-07T17:11:46.142Z,10.63
2023-02-07T17:14:13.025Z,12.07
2023-02-07T17:16:40.526Z,14.00
2023-02-07T17:19:16.285Z,12.23
2023-02-07T17:21:43.390Z,16.03
2023-02-07T17:24:11.209Z,15.30
2023-02-07T17:26:39.684Z,13.97
2023-02-07T17:29:07.288Z,17.57
2023-02-07T17:31:34.457Z,15.17
2023-02-07T17:34:01.623Z,13.07
2023-02-07T17:36:29.117Z,15.27
2023-02-07T17:38:58.922Z,14.00
2023-02-07T17:41:26.543Z,12.80
2023-02-07T17:43:54.367Z,13.67
2023-02-07T17:46:23.920Z,13.07
2023-02-07T17:48:51.777Z,13.50
2023-02-07T17:51:24.778Z,13.40
2023-02-07T17:53:51.841Z,14.07
2023-02-07T17:56:24.707Z,13.13
2023-02-07T17:58:53.489Z,12.23
2023-02-07T18:01:21.856Z,13.17
2023-02-07T18:03:50.636Z,13.87
2023-02-07T18:06:19.415Z,17.63
2023-02-07T18:08:46.862Z,13.63
2023-02-07T18:11:14.595Z,14.53
2023-02-07T18:13:43.403Z,15.17
2023-02-07T18:16:18.940Z,14.20
2023-02-07T18:18:45.930Z,14.13
2023-02-07T18:21:13.802Z,15.10
2023-02-07T18:23:43.065Z,14.67
2023-02-07T18:26:19.179Z,15.07
2023-02-07T18:28:46.565Z,14.57
2023-02-07T18:31:20.067Z,16.30
2023-02-07T18:33:48.141Z,15.37
2023-02-07T18:36:16.541Z,15.17
2023-02-07T18:38:43.922Z,13.90
2023-02-07T18:41:13.563Z,16.87
2023-02-07T18:43:41.200Z,14.07
2023-02-07T18:46:17.306Z,14.40
2023-02-07T18:48:45.627Z,15.97
2023-02-07T18:51:14.937Z,17.37
2023-02-07T18:53:42.888Z,17.67
2023-02-07T18:56:16.913Z,15.70
2023-02-07T18:58:46.848Z,14.83
2023-02-07T19:01:19.121Z,15.83
2023-02-07T19:03:48.151Z,16.97
2023-02-07T19:06:15.303Z,16.20
2023-02-07T19:08:42.549Z,15.40
2023-02-07T19:11:15.185Z,15.03
2023-02-07T19:13:46.613Z,14.67
2023-02-07T19:16:20.790Z,14.73
2023-02-07T19:18:50.773Z,15.80
2023-02-07T19:21:23.793Z,17.80
2023-02-07T19:23:51.215Z,18.77
2023-02-07T19:26:18.287Z,19.80
2023-02-07T19:28:45.295Z,16.73
2023-02-07T19:31:17.942Z,17.20
2023-02-07T19:33:46.094Z,17.83
2023-02-07T19:36:13.206Z,17.70
2023-02-07T19:38:40.799Z,19.43
2023-02-07T19:41:08.829Z,19.50
2023-02-07T19:43:36.583Z,17.83
2023-02-07T19:46:04.043Z,18.10
2023-02-07T19:48:31.302Z,17.57
2023-02-07T19:51:07.162Z,18.60
2023-02-07T19:53:34.138Z,18.43
2023-02-07T19:56:03.691Z,19.60
2023-02-07T19:58:32.038Z,22.10
2023-02-07T20:00:59.645Z,20.17
2023-02-07T20:03:27.228Z,19.13
2023-02-07T20:05:54.237Z,24.10
2023-02-07T20:08:21.496Z,25.73
2023-02-07T20:10:48.895Z,25.33
2023-02-07T20:13:16.384Z,23.90
2023-02-07T20:15:47.176Z,24.97
2023-02-07T20:18:14.803Z,27.03
2023-02-07T20:20:47.733Z,25.43
2023-02-07T20:23:15.393Z,24.57
2023-02-07T20:25:42.494Z,25.03
2023-02-07T20:28:09.871Z,24.37
2023-02-07T20:30:43.048Z,23.57
2023-02-07T20:33:10.191Z,23.43
2023-02-07T20:35:38.468Z,21.57
2023-02-07T20:38:05.814Z,22.60
2023-02-07T20:40:33.039Z,21.83
2023-02-07T20:43:00.138Z,23.70
2023-02-07T20:45:30.378Z,23.83
2023-02-07T20:47:57.522Z,23.47
2023-02-07T20:50:25.009Z,23.40
2023-02-07T20:52:52.278Z,24.80
2023-02-07T20:55:22.771Z,25.13
2023-02-07T20:57:49.745Z,25.23
2023-02-07T21:00:16.859Z,24.53
2023-02-07T21:02:43.813Z,24.80
2023-02-07T21:05:10.833Z,23.37
2023-02-07T21:07:38.009Z,23.93
2023-02-07T21:10:06.090Z,23.77
2023-02-07T21:12:33.162Z,22.30
2023-02-07T21:15:00.107Z,23.43
2023-02-07T21:17:27.060Z,22.90
2023-02-07T21:19:53.984Z,21.73
2023-02-07T21:22:23.059Z,23.07
2023-02-07T21:24:50.097Z,20.50
2023-02-07T21:27:17.070Z,20.50
2023-02-07T21:29:44.044Z,19.77
2023-02-07T21:32:10.994Z,18.47
2023-02-07T21:34:38.105Z,20.73
2023-02-07T21:37:05.087Z,17.97
2023-02-07T21:39:32.108Z,19.93
2023-02-07T21:41:59.068Z,19.37
2023-02-07T21:44:26.183Z,19.20
2023-02-07T21:46:53.190Z,18.57
2023-02-07T21:49:20.974Z,20.77
2023-02-07T21:51:49.546Z,21.77
2023-02-07T21:54:16.895Z,21.30
2023-02-07T21:56:45.513Z,21.03
2023-02-07T21:59:15.590Z,21.03
2023-02-07T22:01:43.795Z,24.23
2023-02-07T22:04:11.105Z,24.90
2023-02-07T22:06:42.325Z,22.33
2023-02-07T22:09:15.358Z,21.70
2023-02-07T22:11:43.075Z,23.43
2023-02-07T22:14:12.150Z,22.93
2023-02-07T22:16:39.266Z,32.47
2023-02-07T22:19:07.493Z,36.93
2023-02-07T22:21:36.288Z,29.20
2023-02-07T22:24:05.330Z,23.97
2023-02-07T22:26:33.540Z,22.90
2023-02-07T22:29:01.476Z,27.03
2023-02-07T22:31:31.223Z,26.90
2023-02-07T22:34:01.763Z,29.47
2023-02-07T22:36:32.216Z,28.57
2023-02-07T22:39:00.446Z,30.30
2023-02-07T22:41:28.508Z,28.37
2023-02-07T22:43:55.716Z,27.73
2023-02-07T22:46:24.605Z,33.97
2023-02-07T22:48:52.209Z,30.83
2023-02-07T22:51:28.047Z,27.90
2023-02-07T22:54:00.582Z,26.33
2023-02-07T22:56:28.027Z,25.37
2023-02-07T22:58:55.501Z,27.43
2023-02-07T23:01:26.498Z,29.30
2023-02-07T23:03:54.389Z,26.03
2023-02-07T23:06:22.941Z,25.17
2023-02-07T23:08:50.518Z,26.10
2023-02-07T23:11:19.054Z,24.77
2023-02-07T23:13:46.042Z,26.20
2023-02-07T23:16:22.057Z,25.73
2023-02-07T23:18:50.955Z,27.17
2023-02-07T23:21:19.988Z,25.07
2023-02-07T23:23:47.617Z,26.33
2023-02-07T23:26:17.246Z,26.87
2023-02-07T23:28:45.120Z,25.63
2023-02-07T23:31:16.383Z,25.80
2023-02-07T23:33:43.889Z,26.17
2023-02-07T23:36:12.800Z,26.80
2023-02-07T23:38:40.348Z,25.03
2023-02-07T23:41:07.977Z,27.53
2023-02-07T23:43:36.331Z,25.70
2023-02-07T23:46:04.300Z,24.40
2023-02-07T23:48:34.488Z,23.50
2023-02-07T23:51:03.661Z,22.37
2023-02-07T23:53:31.185Z,20.80
2023-02-07T23:55:59.174Z,20.67
2023-02-07T23:58:27.504Z,19.73
